createdAt,value
2023-07-29T00:00:57.786Z,95.68
2023-07-29T00:04:00.306Z,96.02
2023-07-29T00:07:02.623Z,96.14
2023-07-29T00:10:05.481Z,96.35
2023-07-29T00:13:08.594Z,96.97
2023-07-29T00:16:11.217Z,97.10
2023-07-29T00:19:13.595Z,97.95
2023-07-29T00:22:15.888Z,98.35
2023-07-29T00:25:18.169Z,97.58
2023-07-29T00:28:23.427Z,97.31
2023-07-29T00:31:25.979Z,97.51
2023-07-29T00:34:29.736Z,97.25
2023-07-29T00:37:32.017Z,90.64
2023-07-29T00:40:37.327Z,92.36
2023-07-29T00:43:39.650Z,92.87
2023-07-29T00:46:43.110Z,93.42
2023-07-29T00:49:45.891Z,90.42
2023-07-29T00:52:48.378Z,87.26
2023-07-29T00:55:51.666Z,86.09
2023-07-29T00:58:59.857Z,85.52
2023-07-29T01:02:04.412Z,83.72
2023-07-29T01:05:07.991Z,83.38
2023-07-29T01:08:30.151Z,83.60
2023-07-29T01:11:35.552Z,83.82
2023-07-29T01:14:52.237Z,83.86
2023-07-29T01:18:00.243Z,84.64
2023-07-29T01:21:12.186Z,84.59
2023-07-29T01:24:14.488Z,85.04
2023-07-29T01:27:16.921Z,85.59
2023-07-29T01:30:22.620Z,85.45
2023-07-29T01:33:28.124Z,85.69
2023-07-29T01:36:35.540Z,86.00
2023-07-29T01:39:38.120Z,87.78
2023-07-29T01:42:40.378Z,89.87
2023-07-29T01:45:43.083Z,91.01
2023-07-29T01:48:45.808Z,91.35
2023-07-29T01:51:49.932Z,92.39
2023-07-29T01:54:52.194Z,93.02
2023-07-29T01:57:54.533Z,94.22
2023-07-29T02:00:58.090Z,94.43
2023-07-29T02:04:00.553Z,94.49
2023-07-29T02:07:02.854Z,95.13
2023-07-29T02:10:05.759Z,95.47
2023-07-29T02:13:08.098Z,94.99
2023-07-29T02:16:10.396Z,95.27
2023-07-29T02:19:12.921Z,95.99
2023-07-29T02:22:17.338Z,95.60
2023-07-29T02:25:19.670Z,95.25
2023-07-29T02:28:21.991Z,96.03
2023-07-29T02:31:25.986Z,96.13
2023-07-29T02:34:28.616Z,96.24
2023-07-29T02:37:30.932Z,95.99
2023-07-29T02:40:33.266Z,95.96
2023-07-29T02:43:35.584Z,96.25
2023-07-29T02:46:38.066Z,96.70
2023-07-29T02:49:40.716Z,97.12
2023-07-29T02:52:43.001Z,96.96
2023-07-29T02:55:45.299Z,98.03
2023-07-29T02:58:47.612Z,98.51
2023-07-29T03:01:49.917Z,97.76
2023-07-29T03:04:52.318Z,97.97
2023-07-29T03:07:54.988Z,98.20
2023-07-29T03:10:58.389Z,97.45
2023-07-29T03:14:01.940Z,98.43
2023-07-29T03:17:06.127Z,98.66
2023-07-29T03:20:09.083Z,97.77
2023-07-29T03:23:11.335Z,97.04
2023-07-29T03:26:13.692Z,96.29
2023-07-29T03:29:16.029Z,96.17
2023-07-29T03:32:18.332Z,96.12
2023-07-29T03:35:20.587Z,96.27
2023-07-29T03:38:22.862Z,96.96
2023-07-29T03:41:25.176Z,96.36
2023-07-29T03:44:27.460Z,96.01
2023-07-29T03:47:29.778Z,96.35
2023-07-29T03:50:36.148Z,94.90
2023-07-29T03:53:38.586Z,96.00
2023-07-29T03:56:40.924Z,95.72
2023-07-29T03:59:43.196Z,96.81
2023-07-29T04:02:46.890Z,96.79
2023-07-29T04:05:49.653Z,97.12
2023-07-29T04:08:52.172Z,97.61
2023-07-29T04:11:54.490Z,96.90
2023-07-29T04:14:56.803Z,96.57
2023-07-29T04:17:59.160Z,96.46
2023-07-29T04:21:01.804Z,96.05
2023-07-29T04:24:04.329Z,95.22
2023-07-29T04:27:06.882Z,96.10
2023-07-29T04:30:09.678Z,95.68
2023-07-29T04:33:11.908Z,95.58
2023-07-29T04:36:14.264Z,97.18
2023-07-29T04:39:20.264Z,97.11
2023-07-29T04:42:22.704Z,96.61
2023-07-29T04:45:29.934Z,96.67
2023-07-29T04:48:32.262Z,96.82
2023-07-29T04:51:34.853Z,97.21
2023-07-29T04:54:37.169Z,96.58
2023-07-29T04:57:39.487Z,95.62
2023-07-29T05:00:41.806Z,92.99
2023-07-29T05:03:44.837Z,94.67
2023-07-29T05:06:48.167Z,93.79
2023-07-29T05:09:50.502Z,90.33
2023-07-29T05:12:52.836Z,91.00
2023-07-29T05:15:55.785Z,83.00
2023-07-29T05:18:58.130Z,87.99
2023-07-29T05:22:00.371Z,85.85
2023-07-29T05:25:04.385Z,86.09
2023-07-29T05:28:06.788Z,86.04
2023-07-29T05:31:09.088Z,85.60
2023-07-29T05:34:11.837Z,82.79
2023-07-29T05:37:14.936Z,82.03
2023-07-29T05:40:17.661Z,70.04
2023-07-29T05:43:19.978Z,68.04
2023-07-29T05:46:22.311Z,73.20
2023-07-29T05:49:25.059Z,63.92
2023-07-29T05:52:27.357Z,62.34
2023-07-29T05:55:29.636Z,62.41
2023-07-29T05:58:32.413Z,59.03
2023-07-29T06:01:34.685Z,50.36
2023-07-29T06:04:37.005Z,49.02
2023-07-29T06:07:39.379Z,46.49
2023-07-29T06:10:41.745Z,42.90
2023-07-29T06:13:44.109Z,39.97
2023-07-29T06:16:46.399Z,44.58
2023-07-29T06:19:49.024Z,49.21
2023-07-29T06:22:51.299Z,52.47
2023-07-29T06:25:53.564Z,55.18
2023-07-29T06:28:55.857Z,57.61
2023-07-29T06:31:59.656Z,56.99
2023-07-29T06:35:02.081Z,56.73
2023-07-29T06:38:04.351Z,54.07
2023-07-29T06:41:07.016Z,52.03
2023-07-29T06:44:09.528Z,51.35
2023-07-29T06:47:11.826Z,51.58
2023-07-29T06:50:14.207Z,52.91
2023-07-29T06:53:16.547Z,53.60
2023-07-29T06:56:18.981Z,54.28
2023-07-29T06:59:21.389Z,57.73
2023-07-29T07:02:23.898Z,57.82
2023-07-29T07:05:26.281Z,60.61
2023-07-29T07:08:28.568Z,61.94
2023-07-29T07:11:30.854Z,61.74
2023-07-29T07:14:33.149Z,61.33
2023-07-29T07:17:35.482Z,59.90
2023-07-29T07:20:38.065Z,58.15
2023-07-29T07:23:40.755Z,57.31
2023-07-29T07:26:42.977Z,51.67
2023-07-29T07:29:45.264Z,53.35
2023-07-29T07:32:47.647Z,52.17
2023-07-29T07:35:49.986Z,47.80
2023-07-29T07:38:52.273Z,48.01
2023-07-29T07:41:54.550Z,44.66
2023-07-29T07:44:56.887Z,43.35
2023-07-29T07:47:59.223Z,39.39
2023-07-29T07:51:01.570Z,41.28
2023-07-29T07:54:03.834Z,42.76
2023-07-29T07:57:06.798Z,39.32
2023-07-29T08:00:10.818Z,42.28
2023-07-29T08:03:15.783Z,44.05
2023-07-29T08:06:18.055Z,43.04
2023-07-29T08:09:20.315Z,39.72
2023-07-29T08:12:22.631Z,37.53
2023-07-29T08:15:24.914Z,37.80
2023-07-29T08:18:27.229Z,40.86
2023-07-29T08:21:29.494Z,38.71
2023-07-29T08:24:31.813Z,39.26
2023-07-29T08:27:35.735Z,40.30
2023-07-29T08:30:38.023Z,38.09
2023-07-29T08:33:40.291Z,37.47
2023-07-29T08:36:42.594Z,35.43
2023-07-29T08:39:45.159Z,38.61
2023-07-29T08:42:48.651Z,40.45
2023-07-29T08:45:52.198Z,41.29
2023-07-29T08:48:55.903Z,39.67
2023-07-29T08:51:58.813Z,36.42
2023-07-29T08:55:01.529Z,34.93
2023-07-29T08:58:04.191Z,35.99
2023-07-29T09:01:07.294Z,35.99
2023-07-29T09:04:09.953Z,37.61
2023-07-29T09:07:13.000Z,37.38
2023-07-29T09:10:15.667Z,38.31
2023-07-29T09:13:18.024Z,35.73
2023-07-29T09:16:22.557Z,35.53
2023-07-29T09:19:28.353Z,31.54
2023-07-29T09:22:31.518Z,31.68
2023-07-29T09:25:33.805Z,31.39
2023-07-29T09:28:40.821Z,29.77
2023-07-29T09:31:43.165Z,30.13
2023-07-29T09:34:45.654Z,30.61
2023-07-29T09:37:48.918Z,28.66
2023-07-29T09:40:51.174Z,27.40
2023-07-29T09:43:58.824Z,26.33
2023-07-29T09:47:01.093Z,25.82
2023-07-29T09:50:03.406Z,22.85
2023-07-29T09:53:08.247Z,23.70
2023-07-29T09:56:11.226Z,23.67
2023-07-29T09:59:13.900Z,21.33
2023-07-29T10:02:17.737Z,21.74
2023-07-29T10:05:21.465Z,20.48
2023-07-29T10:08:25.718Z,21.09
2023-07-29T10:11:28.343Z,20.76
2023-07-29T10:14:32.022Z,20.85
2023-07-29T10:17:37.062Z,21.20
2023-07-29T10:20:41.300Z,21.08
2023-07-29T10:23:46.553Z,20.79
2023-07-29T10:26:51.151Z,19.85
2023-07-29T10:29:56.345Z,19.60
2023-07-29T10:33:07.770Z,19.97
2023-07-29T10:36:10.533Z,19.29
2023-07-29T10:39:13.964Z,18.95
2023-07-29T10:42:16.211Z,18.93
2023-07-29T10:45:22.375Z,19.62
2023-07-29T10:48:50.866Z,18.42
2023-07-29T10:51:54.500Z,19.57
2023-07-29T10:54:59.509Z,21.22
2023-07-29T10:58:15.334Z,23.43
2023-07-29T11:01:28.722Z,24.35
2023-07-29T11:04:32.283Z,25.25
2023-07-29T11:07:48.228Z,24.69
2023-07-29T11:11:09.494Z,22.08
2023-07-29T11:14:11.995Z,20.60
2023-07-29T11:17:15.267Z,19.73
2023-07-29T11:20:25.734Z,18.60
2023-07-29T11:23:36.087Z,18.67
2023-07-29T11:26:39.104Z,20.35
2023-07-29T11:29:41.491Z,21.29
2023-07-29T11:32:45.463Z,21.42
2023-07-29T11:35:47.825Z,24.12
2023-07-29T11:38:50.256Z,25.29
2023-07-29T11:41:52.582Z,26.32
2023-07-29T11:44:57.717Z,25.74
2023-07-29T11:48:01.947Z,27.24
2023-07-29T11:51:04.736Z,26.88
2023-07-29T11:54:07.469Z,27.29
2023-07-29T11:57:10.288Z,26.39
2023-07-29T12:00:14.096Z,24.80
2023-07-29T12:03:20.526Z,25.90
2023-07-29T12:06:25.659Z,24.23
2023-07-29T12:09:29.708Z,23.53
2023-07-29T12:12:32.145Z,22.08
2023-07-29T12:15:35.509Z,24.29
2023-07-29T12:18:37.868Z,22.68
2023-07-29T12:21:42.759Z,24.11
2023-07-29T12:24:45.145Z,24.71
2023-07-29T12:27:48.134Z,25.69
2023-07-29T12:30:57.102Z,27.79
2023-07-29T12:33:59.554Z,27.53
2023-07-29T12:37:04.097Z,27.45
2023-07-29T12:40:06.906Z,27.21
2023-07-29T12:43:09.271Z,27.72
2023-07-29T12:46:11.631Z,28.44
2023-07-29T12:49:17.295Z,29.40
2023-07-29T12:52:19.545Z,29.54
2023-07-29T12:55:23.893Z,30.05
2023-07-29T12:58:26.484Z,32.37
2023-07-29T13:01:29.578Z,32.32
2023-07-29T13:04:31.807Z,30.15
2023-07-29T13:07:34.155Z,30.79
2023-07-29T13:10:36.399Z,29.54
2023-07-29T13:13:38.806Z,28.73
2023-07-29T13:16:41.626Z,28.51
2023-07-29T13:19:44.139Z,28.94
2023-07-29T13:22:46.393Z,29.37
2023-07-29T13:25:48.652Z,32.78
2023-07-29T13:28:50.906Z,33.11
2023-07-29T13:31:53.308Z,34.28
2023-07-29T13:34:55.708Z,32.68
2023-07-29T13:37:57.946Z,33.25
2023-07-29T13:41:00.342Z,31.43
2023-07-29T13:44:02.669Z,32.21
2023-07-29T13:47:05.281Z,32.56
2023-07-29T13:50:11.031Z,32.45
2023-07-29T13:53:13.356Z,33.17
2023-07-29T13:56:15.590Z,33.33
2023-07-29T13:59:17.924Z,32.76
2023-07-29T14:02:20.285Z,33.60
2023-07-29T14:05:22.552Z,34.08
2023-07-29T14:08:24.914Z,33.82
2023-07-29T14:11:27.135Z,33.76
2023-07-29T14:14:29.413Z,34.52
2023-07-29T14:17:32.673Z,34.87
2023-07-29T14:20:35.148Z,34.63
2023-07-29T14:23:37.450Z,35.51
2023-07-29T14:26:39.803Z,34.26
2023-07-29T14:29:42.103Z,33.50
2023-07-29T14:32:44.378Z,32.57
2023-07-29T14:35:46.800Z,34.09
2023-07-29T14:38:49.109Z,34.24
2023-07-29T14:41:51.432Z,34.20
2023-07-29T14:44:54.108Z,33.09
2023-07-29T14:47:56.464Z,33.45
2023-07-29T14:50:58.873Z,33.31
2023-07-29T14:54:01.135Z,32.65
2023-07-29T14:57:03.896Z,32.50
2023-07-29T15:00:07.235Z,32.79
2023-07-29T15:03:09.561Z,32.93
2023-07-29T15:06:11.923Z,34.32
2023-07-29T15:09:14.204Z,34.20
2023-07-29T15:12:16.573Z,35.42
2023-07-29T15:15:19.013Z,35.60
2023-07-29T15:18:21.268Z,36.04
2023-07-29T15:21:24.102Z,36.01
2023-07-29T15:24:26.362Z,36.55
2023-07-29T15:27:29.949Z,36.33
2023-07-29T15:30:32.260Z,37.63
2023-07-29T15:33:35.706Z,38.16
2023-07-29T15:36:39.310Z,37.87
2023-07-29T15:39:43.006Z,37.69
2023-07-29T15:42:45.489Z,38.17
2023-07-29T15:45:47.852Z,39.68
2023-07-29T15:48:50.131Z,39.10
2023-07-29T15:51:52.626Z,39.65
2023-07-29T15:54:56.126Z,39.43
2023-07-29T15:57:58.540Z,40.00
2023-07-29T16:01:00.833Z,40.60
2023-07-29T16:04:03.350Z,41.15
2023-07-29T16:07:06.035Z,41.76
2023-07-29T16:10:09.892Z,41.60
2023-07-29T16:13:14.127Z,42.29
2023-07-29T16:16:16.479Z,41.55
2023-07-29T16:19:25.549Z,41.91
2023-07-29T16:22:28.077Z,42.83
2023-07-29T16:25:30.333Z,43.40
2023-07-29T16:28:32.853Z,43.41
2023-07-29T16:31:36.122Z,43.76
2023-07-29T16:34:39.724Z,44.12
2023-07-29T16:37:42.045Z,43.77
2023-07-29T16:40:57.701Z,44.30
2023-07-29T16:44:06.594Z,44.42
2023-07-29T16:47:08.918Z,43.50
2023-07-29T16:50:11.390Z,43.60
2023-07-29T16:53:13.720Z,44.09
2023-07-29T16:56:16.036Z,43.29
2023-07-29T16:59:18.621Z,44.30
2023-07-29T17:02:20.959Z,44.28
2023-07-29T17:05:23.220Z,44.70
2023-07-29T17:08:25.598Z,45.27
2023-07-29T17:11:28.038Z,45.52
2023-07-29T17:14:30.408Z,45.50
2023-07-29T17:17:32.769Z,46.72
2023-07-29T17:20:35.072Z,46.97
2023-07-29T17:23:37.298Z,47.47
2023-07-29T17:26:39.643Z,46.18
2023-07-29T17:29:43.093Z,46.64
2023-07-29T17:32:45.441Z,46.24
2023-07-29T17:35:47.758Z,46.40
2023-07-29T17:38:50.192Z,46.94
2023-07-29T17:41:52.710Z,47.30
2023-07-29T17:44:55.068Z,47.53
2023-07-29T17:47:57.480Z,49.10
2023-07-29T17:50:59.777Z,50.31
2023-07-29T17:54:02.047Z,50.66
2023-07-29T17:57:04.667Z,51.02
2023-07-29T18:00:07.635Z,51.31
2023-07-29T18:03:10.026Z,51.91
2023-07-29T18:06:14.414Z,52.13
2023-07-29T18:09:16.683Z,52.58
2023-07-29T18:12:18.951Z,53.23
2023-07-29T18:15:21.229Z,52.87
2023-07-29T18:18:23.652Z,53.26
2023-07-29T18:21:26.036Z,53.28
2023-07-29T18:24:28.346Z,54.62
2023-07-29T18:27:32.769Z,54.55
2023-07-29T18:30:35.643Z,54.32
2023-07-29T18:33:37.988Z,53.67
2023-07-29T18:36:42.083Z,53.80
2023-07-29T18:39:46.558Z,53.60
2023-07-29T18:42:48.765Z,53.15
2023-07-29T18:45:51.318Z,52.90
2023-07-29T18:48:59.978Z,54.09
2023-07-29T18:52:02.497Z,53.45
2023-07-29T18:55:05.129Z,54.49
2023-07-29T18:58:07.445Z,54.04
2023-07-29T19:01:12.008Z,54.19
2023-07-29T19:04:15.989Z,54.17
2023-07-29T19:07:20.073Z,54.85
2023-07-29T19:10:22.594Z,55.60
2023-07-29T19:13:25.557Z,57.04
2023-07-29T19:16:38.691Z,57.22
2023-07-29T19:19:42.269Z,56.84
2023-07-29T19:22:44.868Z,57.06
2023-07-29T19:25:47.879Z,57.39
2023-07-29T19:28:57.638Z,57.31
2023-07-29T19:32:00.820Z,57.78
2023-07-29T19:35:05.241Z,57.90
2023-07-29T19:38:07.845Z,58.24
2023-07-29T19:41:13.418Z,58.43
2023-07-29T19:44:22.432Z,58.95
2023-07-29T19:47:25.562Z,59.28
2023-07-29T19:50:33.755Z,59.52
2023-07-29T19:53:44.058Z,59.72
2023-07-29T19:56:47.671Z,60.74
2023-07-29T19:59:50.858Z,61.25
2023-07-29T20:02:53.411Z,61.79
2023-07-29T20:05:56.280Z,62.26
2023-07-29T20:08:59.133Z,63.18
2023-07-29T20:12:02.902Z,63.61
2023-07-29T20:15:07.574Z,63.64
2023-07-29T20:18:10.245Z,63.37
2023-07-29T20:21:12.672Z,62.94
2023-07-29T20:24:16.264Z,62.95
2023-07-29T20:27:18.539Z,62.42
2023-07-29T20:30:20.962Z,62.25
2023-07-29T20:33:25.325Z,62.11
2023-07-29T20:36:30.543Z,61.98
2023-07-29T20:39:32.813Z,62.36
2023-07-29T20:42:37.598Z,62.69
2023-07-29T20:45:39.938Z,62.46
2023-07-29T20:48:42.235Z,63.01
2023-07-29T20:51:44.495Z,63.08
2023-07-29T20:54:46.783Z,63.53
2023-07-29T20:57:49.087Z,63.40
2023-07-29T21:00:54.899Z,63.65
2023-07-29T21:03:57.613Z,63.75
2023-07-29T21:07:01.235Z,63.73
2023-07-29T21:10:03.747Z,64.01
2023-07-29T21:13:06.062Z,63.55
2023-07-29T21:16:08.572Z,64.46
2023-07-29T21:19:10.873Z,64.82
2023-07-29T21:22:13.146Z,65.57
2023-07-29T21:25:15.554Z,65.92
2023-07-29T21:28:19.453Z,65.94
2023-07-29T21:31:21.861Z,66.40
2023-07-29T21:34:24.108Z,67.36
2023-07-29T21:37:35.859Z,67.53
2023-07-29T21:40:39.100Z,67.56
2023-07-29T21:43:41.425Z,67.68
2023-07-29T21:46:43.686Z,68.07
2023-07-29T21:49:46.060Z,68.24
2023-07-29T21:52:48.421Z,68.87
2023-07-29T21:55:52.745Z,68.11
2023-07-29T21:58:55.061Z,68.49
2023-07-29T22:01:57.297Z,68.06
2023-07-29T22:04:59.539Z,67.34
2023-07-29T22:08:04.224Z,68.42
2023-07-29T22:11:10.339Z,68.20
2023-07-29T22:14:12.663Z,67.96
2023-07-29T22:17:14.968Z,68.27
2023-07-29T22:20:17.287Z,68.57
2023-07-29T22:23:19.520Z,69.12
2023-07-29T22:26:21.779Z,68.85
2023-07-29T22:29:24.017Z,68.77
2023-07-29T22:32:26.706Z,68.16
2023-07-29T22:35:29.054Z,67.35
2023-07-29T22:38:31.412Z,67.31
2023-07-29T22:41:33.708Z,67.54
2023-07-29T22:44:35.985Z,69.62
2023-07-29T22:47:38.355Z,69.60
2023-07-29T22:50:40.706Z,68.78
2023-07-29T22:53:42.964Z,70.47
2023-07-29T22:56:45.292Z,69.00
2023-07-29T22:59:47.661Z,69.93
2023-07-29T23:02:49.992Z,70.81
2023-07-29T23:05:52.625Z,69.20
2023-07-29T23:08:55.007Z,68.54
2023-07-29T23:11:57.298Z,69.33
2023-07-29T23:14:59.554Z,71.31
2023-07-29T23:18:02.215Z,69.67
2023-07-29T23:21:04.556Z,69.49
2023-07-29T23:24:06.812Z,71.49
2023-07-29T23:27:09.088Z,71.22
2023-07-29T23:30:11.852Z,70.96
2023-07-29T23:33:14.148Z,70.39
2023-07-29T23:36:16.467Z,71.13
2023-07-29T23:39:18.705Z,72.94
2023-07-29T23:42:20.992Z,71.01
2023-07-29T23:45:23.381Z,69.77
2023-07-29T23:48:25.651Z,69.66
2023-07-29T23:51:27.892Z,70.68
2023-07-29T23:54:30.192Z,69.73
2023-07-29T23:57:32.540Z,70.48
